Time;durP1;ratioP1;P1;durP2;ratioP2;P2;SDS_P1;SDS_P2;PMS_P1;PMS_P2;Temp;Humidity;BMP_temperature;BMP_pressure;BME280_temperature;BME280_humidity;BME280_pressure;Samples;Min_cycle;Max_cycle;Signal;HPM_P1;HPM_P2
2023/12/10 00:01:00;;;;;;;43.90;21.43;;;;;;;;;;6292828;28;20195;-61
2023/12/10 00:04:01;;;;;;;41.00;19.93;;;;;;;;;;6306582;28;20184;-61
2023/12/10 00:07:02;;;;;;;40.13;20.50;;;;;;;;;;6300806;28;20204;-61
2023/12/10 00:10:03;;;;;;;42.23;21.20;;;;;;;;;;6304424;28;20203;-61
2023/12/10 00:13:04;;;;;;;41.40;19.87;;;;;;;;;;6291258;28;20204;-61
2023/12/10 00:16:05;;;;;;;36.17;19.10;;;;;;;;;;6291657;28;20201;-61
2023/12/10 00:19:06;;;;;;;34.30;18.27;;;;;;;;;;6282778;28;20279;-61
2023/12/10 00:22:07;;;;;;;34.60;17.80;;;;;;;;;;6292150;28;20192;-61
2023/12/10 00:25:09;;;;;;;32.77;17.63;;;;;;;;;;6308742;28;20187;-61
2023/12/10 00:28:10;;;;;;;35.50;17.77;;;;;;;;;;6283775;28;20212;-61
2023/12/10 00:31:11;;;;;;;36.10;18.90;;;;;;;;;;6293167;28;20197;-61
2023/12/10 00:34:13;;;;;;;38.03;19.63;;;;;;;;;;6305836;28;20192;-61
2023/12/10 00:37:14;;;;;;;36.40;19.10;;;;;;;;;;6291619;28;20224;-61
2023/12/10 00:40:15;;;;;;;33.00;17.23;;;;;;;;;;6287191;28;20200;-61
2023/12/10 00:43:16;;;;;;;34.90;17.53;;;;;;;;;;6291974;28;20243;-61
2023/12/10 00:46:18;;;;;;;31.30;17.57;;;;;;;;;;6291367;28;20190;-61
2023/12/10 00:49:19;;;;;;;37.83;17.97;;;;;;;;;;6323052;28;20188;-61
2023/12/10 00:52:20;;;;;;;35.63;19.57;;;;;;;;;;6291481;28;20666;-61
2023/12/10 00:55:21;;;;;;;32.63;18.50;;;;;;;;;;6293651;28;20248;-61
2023/12/10 00:58:22;;;;;;;32.87;17.47;;;;;;;;;;6290226;28;20226;-61
2023/12/10 01:01:23;;;;;;;35.13;18.10;;;;;;;;;;6304793;28;20188;-61
2023/12/10 01:04:24;;;;;;;35.43;18.20;;;;;;;;;;6309962;28;20648;-61
2023/12/10 01:07:25;;;;;;;33.07;18.03;;;;;;;;;;6296286;28;20199;-61
2023/12/10 01:10:26;;;;;;;35.93;19.73;;;;;;;;;;6286071;28;20206;-61
2023/12/10 01:13:27;;;;;;;36.77;19.17;;;;;;;;;;6306399;28;20214;-61
2023/12/10 01:16:28;;;;;;;33.57;19.60;;;;;;;;;;6289009;28;20246;-61
2023/12/10 01:19:30;;;;;;;34.63;18.37;;;;;;;;;;6299419;28;20213;-61
2023/12/10 01:22:31;;;;;;;37.10;18.83;;;;;;;;;;6332529;28;20271;-61
2023/12/10 01:25:32;;;;;;;42.33;20.27;;;;;;;;;;6290667;28;20587;-61
2023/12/10 01:28:33;;;;;;;36.77;19.00;;;;;;;;;;6301591;28;20201;-61
2023/12/10 01:31:39;;;;;;;39.23;19.20;;;;;;;;;;6286307;28;20242;-61
2023/12/10 01:34:43;;;;;;;37.63;18.80;;;;;;;;;;6300804;28;20184;-61
2023/12/10 01:37:44;;;;;;;37.80;20.10;;;;;;;;;;6311960;28;20272;-61
2023/12/10 01:40:45;;;;;;;35.80;18.90;;;;;;;;;;6290534;28;20199;-61
2023/12/10 01:43:46;;;;;;;35.47;18.80;;;;;;;;;;6304606;28;21281;-61
2023/12/10 01:46:47;;;;;;;33.10;18.60;;;;;;;;;;6311778;28;20215;-61
2023/12/10 01:49:48;;;;;;;36.83;19.40;;;;;;;;;;6307034;28;20184;-61
2023/12/10 01:52:50;;;;;;;37.80;20.03;;;;;;;;;;6311187;28;20313;-61
2023/12/10 01:55:51;;;;;;;38.30;19.33;;;;;;;;;;6291741;28;20214;-61
2023/12/10 01:58:52;;;;;;;34.07;16.80;;;;;;;;;;6289732;28;20731;-61
2023/12/10 02:01:53;;;;;;;35.80;19.03;;;;;;;;;;6281014;28;20201;-61
2023/12/10 02:04:54;;;;;;;35.93;18.70;;;;;;;;;;6297463;28;20203;-61
2023/12/10 02:07:55;;;;;;;36.27;18.80;;;;;;;;;;6287437;28;20209;-61
2023/12/10 02:10:57;;;;;;;34.87;18.70;;;;;;;;;;6289200;28;20192;-61
2023/12/10 02:13:58;;;;;;;33.13;17.93;;;;;;;;;;6312033;28;21062;-61
2023/12/10 02:16:59;;;;;;;34.13;19.10;;;;;;;;;;6272799;28;20223;-61
2023/12/10 02:20:00;;;;;;;35.10;18.03;;;;;;;;;;6289693;28;20192;-61
2023/12/10 02:23:22;;;;;;;38.87;18.77;;;;;;;;;;6281047;28;20184;-61
2023/12/10 02:26:23;;;;;;;38.50;19.23;;;;;;;;;;6294361;28;20292;-61
2023/12/10 02:29:24;;;;;;;33.47;18.90;;;;;;;;;;6280663;28;20193;-61
2023/12/10 02:32:25;;;;;;;35.23;20.00;;;;;;;;;;6286032;28;20190;-61
2023/12/10 02:35:26;;;;;;;36.67;19.40;;;;;;;;;;6281029;28;20188;-61
2023/12/10 02:38:27;;;;;;;33.67;18.33;;;;;;;;;;6324160;28;20214;-61
2023/12/10 02:41:28;;;;;;;32.97;18.93;;;;;;;;;;6289556;28;20186;-61
2023/12/10 02:44:29;;;;;;;36.17;19.17;;;;;;;;;;6280783;28;20264;-61
2023/12/10 02:47:30;;;;;;;33.30;17.30;;;;;;;;;;6303033;28;20195;-61
2023/12/10 02:50:31;;;;;;;36.10;19.50;;;;;;;;;;6287880;28;20197;-62
2023/12/10 02:53:32;;;;;;;34.90;18.13;;;;;;;;;;6307031;28;20188;-62
2023/12/10 02:56:34;;;;;;;33.00;18.30;;;;;;;;;;6303270;28;20271;-61
2023/12/10 02:59:35;;;;;;;34.63;18.60;;;;;;;;;;6278954;28;20209;-61
2023/12/10 03:02:36;;;;;;;34.77;18.47;;;;;;;;;;6283694;28;20187;-61
2023/12/10 03:05:37;;;;;;;38.40;19.17;;;;;;;;;;6293429;28;20270;-61
2023/12/10 03:08:38;;;;;;;37.10;18.83;;;;;;;;;;6288875;28;20203;-61
2023/12/10 03:11:39;;;;;;;31.40;18.70;;;;;;;;;;6277046;28;20226;-61
2023/12/10 03:14:40;;;;;;;36.97;19.73;;;;;;;;;;6316196;28;20211;-61
2023/12/10 03:17:41;;;;;;;29.77;16.63;;;;;;;;;;6289408;28;20279;-61
2023/12/10 03:20:42;;;;;;;32.27;17.33;;;;;;;;;;6295542;28;20195;-61
2023/12/10 03:23:43;;;;;;;32.90;18.67;;;;;;;;;;6291722;28;20214;-61
2023/12/10 03:26:45;;;;;;;30.83;17.67;;;;;;;;;;6288697;28;20190;-61
2023/12/10 03:29:46;;;;;;;31.03;17.47;;;;;;;;;;6292916;28;20271;-61
2023/12/10 03:32:47;;;;;;;29.17;16.93;;;;;;;;;;6290546;28;20189;-61
2023/12/10 03:35:48;;;;;;;34.70;19.20;;;;;;;;;;6291274;28;20201;-61
2023/12/10 03:38:49;;;;;;;32.57;17.60;;;;;;;;;;6289814;28;20209;-61
2023/12/10 03:41:50;;;;;;;32.77;16.93;;;;;;;;;;6306898;28;20322;-61
2023/12/10 03:44:51;;;;;;;33.60;17.33;;;;;;;;;;6306263;28;20296;-61
2023/12/10 03:47:52;;;;;;;32.97;17.50;;;;;;;;;;6311627;28;20211;-61
2023/12/10 03:50:53;;;;;;;37.67;18.37;;;;;;;;;;6288965;28;20185;-61
2023/12/10 03:53:56;;;;;;;33.80;18.73;;;;;;;;;;6287043;28;20208;-61
2023/12/10 03:56:57;;;;;;;32.80;17.57;;;;;;;;;;6294779;28;20199;-61
2023/12/10 03:59:58;;;;;;;33.20;17.80;;;;;;;;;;6309576;28;20183;-61
2023/12/10 04:02:59;;;;;;;32.63;16.87;;;;;;;;;;6294973;28;20203;-61
2023/12/10 04:06:02;;;;;;;32.83;17.60;;;;;;;;;;6311100;28;20327;-61
2023/12/10 04:09:03;;;;;;;33.73;17.00;;;;;;;;;;6301394;28;20181;-61
2023/12/10 04:12:05;;;;;;;32.27;17.80;;;;;;;;;;6308246;28;20203;-61
2023/12/10 04:15:07;;;;;;;32.53;17.23;;;;;;;;;;6317491;28;20193;-61
2023/12/10 04:18:08;;;;;;;31.47;18.17;;;;;;;;;;6288452;28;20219;-61
2023/12/10 04:21:09;;;;;;;33.87;17.90;;;;;;;;;;6323649;28;20230;-61
2023/12/10 04:24:10;;;;;;;34.70;18.97;;;;;;;;;;6285439;28;20193;-61
2023/12/10 04:27:11;;;;;;;28.30;15.63;;;;;;;;;;6316166;28;20240;-61
2023/12/10 04:30:12;;;;;;;28.93;17.47;;;;;;;;;;6286750;28;20196;-61
2023/12/10 04:33:14;;;;;;;28.23;16.20;;;;;;;;;;6290595;28;20193;-61
2023/12/10 04:36:15;;;;;;;31.73;16.80;;;;;;;;;;6304268;28;20184;-61
2023/12/10 04:39:16;;;;;;;31.03;16.60;;;;;;;;;;6299550;28;20279;-61
2023/12/10 04:42:18;;;;;;;29.47;16.33;;;;;;;;;;6308733;28;20194;-61
2023/12/10 04:45:19;;;;;;;29.93;16.57;;;;;;;;;;6283893;28;20344;-61
2023/12/10 04:48:20;;;;;;;28.53;15.83;;;;;;;;;;6305306;28;20203;-61
2023/12/10 04:51:21;;;;;;;31.97;16.97;;;;;;;;;;6290297;28;20201;-61
2023/12/10 04:54:22;;;;;;;31.37;18.20;;;;;;;;;;6289841;28;20231;-61
2023/12/10 04:57:23;;;;;;;34.40;17.97;;;;;;;;;;6283205;28;20218;-61
2023/12/10 05:00:24;;;;;;;29.03;16.33;;;;;;;;;;6277762;28;20207;-62
2023/12/10 05:03:25;;;;;;;33.90;16.13;;;;;;;;;;6300307;28;20204;-62
2023/12/10 05:06:26;;;;;;;32.83;17.17;;;;;;;;;;6318064;28;20229;-62
2023/12/10 05:09:28;;;;;;;31.27;16.83;;;;;;;;;;6282886;28;20199;-62
2023/12/10 05:12:29;;;;;;;29.87;16.17;;;;;;;;;;6289672;28;20284;-62
2023/12/10 05:15:30;;;;;;;33.80;18.60;;;;;;;;;;6278408;28;20192;-62
2023/12/10 05:18:31;;;;;;;30.33;17.37;;;;;;;;;;6286491;28;20217;-62
2023/12/10 05:21:33;;;;;;;31.13;17.00;;;;;;;;;;6283404;28;20192;-62
2023/12/10 05:24:34;;;;;;;24.33;15.07;;;;;;;;;;6302317;28;20273;-62
2023/12/10 05:27:35;;;;;;;29.13;17.67;;;;;;;;;;6279216;28;20197;-62
2023/12/10 05:30:36;;;;;;;29.50;17.47;;;;;;;;;;6288487;28;20187;-62
2023/12/10 05:33:37;;;;;;;31.97;17.13;;;;;;;;;;6287432;28;20273;-62
2023/12/10 05:36:39;;;;;;;29.20;18.10;;;;;;;;;;6285711;28;20195;-62
2023/12/10 05:39:40;;;;;;;28.60;17.00;;;;;;;;;;6281053;28;20230;-62
2023/12/10 05:42:41;;;;;;;30.60;17.67;;;;;;;;;;6275792;28;20342;-62
2023/12/10 05:45:42;;;;;;;32.10;17.20;;;;;;;;;;6306768;28;20195;-62
2023/12/10 05:48:43;;;;;;;31.73;17.90;;;;;;;;;;6297214;28;20202;-62
2023/12/10 05:51:44;;;;;;;32.83;17.47;;;;;;;;;;6300506;28;20273;-62
2023/12/10 05:54:45;;;;;;;30.37;16.90;;;;;;;;;;6295006;28;20321;-62
2023/12/10 05:57:46;;;;;;;30.13;16.83;;;;;;;;;;6291136;28;20681;-61
2023/12/10 06:00:47;;;;;;;30.33;17.37;;;;;;;;;;6284714;28;20195;-60
2023/12/10 06:03:48;;;;;;;31.07;17.33;;;;;;;;;;6283674;28;20193;-61
2023/12/10 06:06:49;;;;;;;31.23;17.43;;;;;;;;;;6318850;28;20192;-61
2023/12/10 06:09:50;;;;;;;25.77;15.47;;;;;;;;;;6283367;28;20191;-61
2023/12/10 06:12:52;;;;;;;25.37;16.20;;;;;;;;;;6289222;28;20218;-61
2023/12/10 06:15:54;;;;;;;31.20;16.77;;;;;;;;;;6291662;28;20243;-62
2023/12/10 06:18:55;;;;;;;28.77;17.57;;;;;;;;;;6309308;28;20224;-61
2023/12/10 06:21:57;;;;;;;29.20;17.77;;;;;;;;;;6291286;28;20194;-61
2023/12/10 06:24:58;;;;;;;32.73;17.33;;;;;;;;;;6289375;28;20196;-61
2023/12/10 06:27:59;;;;;;;32.20;17.60;;;;;;;;;;6303812;28;20193;-61
2023/12/10 06:31:00;;;;;;;28.80;16.30;;;;;;;;;;6283741;28;20199;-61
2023/12/10 06:34:01;;;;;;;33.93;17.87;;;;;;;;;;6292497;28;20207;-61
2023/12/10 06:37:03;;;;;;;29.73;17.90;;;;;;;;;;6302888;28;20246;-61
2023/12/10 06:40:05;;;;;;;30.73;16.70;;;;;;;;;;6298001;28;20722;-61
2023/12/10 06:43:07;;;;;;;26.87;16.37;;;;;;;;;;6297824;28;20759;-61
2023/12/10 06:46:08;;;;;;;30.03;17.73;;;;;;;;;;6277841;28;20187;-61
2023/12/10 06:49:09;;;;;;;28.30;16.00;;;;;;;;;;6300358;28;20192;-60
2023/12/10 06:52:10;;;;;;;31.17;16.27;;;;;;;;;;6287924;28;20194;-60
2023/12/10 06:55:11;;;;;;;28.90;17.70;;;;;;;;;;6306073;28;20270;-60
2023/12/10 06:58:12;;;;;;;28.60;16.77;;;;;;;;;;6289917;28;20212;-60
2023/12/10 07:01:14;;;;;;;30.33;18.27;;;;;;;;;;6310091;28;20198;-60
2023/12/10 07:04:15;;;;;;;29.57;16.87;;;;;;;;;;6294027;28;20272;-60
2023/12/10 07:07:17;;;;;;;26.27;15.60;;;;;;;;;;6292285;28;20199;-60
2023/12/10 07:10:18;;;;;;;28.50;16.10;;;;;;;;;;6296437;28;20200;-60
2023/12/10 07:13:19;;;;;;;29.17;16.60;;;;;;;;;;6294895;28;20207;-60
2023/12/10 07:16:20;;;;;;;29.13;16.67;;;;;;;;;;6302278;28;20273;-60
2023/12/10 07:19:22;;;;;;;29.20;16.80;;;;;;;;;;6299382;28;20213;-60
2023/12/10 07:22:23;;;;;;;32.30;17.93;;;;;;;;;;6299533;28;20193;-60
2023/12/10 07:25:25;;;;;;;31.90;16.27;;;;;;;;;;6294532;28;20189;-60
2023/12/10 07:28:26;;;;;;;27.43;17.27;;;;;;;;;;6292924;28;20192;-60
2023/12/10 07:31:27;;;;;;;31.87;16.97;;;;;;;;;;6295883;28;20196;-60
2023/12/10 07:34:28;;;;;;;26.37;17.00;;;;;;;;;;6310615;28;20657;-60
2023/12/10 07:37:29;;;;;;;32.53;17.83;;;;;;;;;;6306615;28;20218;-62
2023/12/10 07:40:30;;;;;;;24.93;16.77;;;;;;;;;;6302960;28;20200;-60
2023/12/10 07:43:31;;;;;;;29.90;17.20;;;;;;;;;;6293412;28;20224;-61
2023/12/10 07:46:32;;;;;;;28.37;17.07;;;;;;;;;;6323111;28;20212;-61
2023/12/10 07:49:33;;;;;;;31.47;18.07;;;;;;;;;;6309796;28;20189;-61
2023/12/10 07:52:34;;;;;;;27.10;18.03;;;;;;;;;;6303971;28;20281;-61
2023/12/10 07:55:35;;;;;;;30.70;17.63;;;;;;;;;;6293342;28;20203;-62
2023/12/10 07:58:37;;;;;;;28.83;17.17;;;;;;;;;;6300204;28;20262;-60
2023/12/10 08:01:38;;;;;;;28.93;17.30;;;;;;;;;;6315521;28;20259;-61
2023/12/10 08:04:39;;;;;;;27.97;17.90;;;;;;;;;;6329714;28;20188;-61
2023/12/10 08:07:40;;;;;;;29.07;18.90;;;;;;;;;;6306242;28;20189;-61
2023/12/10 08:10:41;;;;;;;29.70;18.47;;;;;;;;;;6307943;28;20196;-61
2023/12/10 08:13:42;;;;;;;29.70;18.83;;;;;;;;;;6297697;28;20199;-61
2023/12/10 08:16:43;;;;;;;28.30;18.27;;;;;;;;;;6288372;28;20190;-61
2023/12/10 08:19:44;;;;;;;30.13;19.27;;;;;;;;;;6299505;28;20274;-61
2023/12/10 08:22:47;;;;;;;29.83;18.27;;;;;;;;;;6286951;28;20203;-61
2023/12/10 08:25:49;;;;;;;28.20;17.07;;;;;;;;;;6297818;28;20194;-61
2023/12/10 08:28:50;;;;;;;33.77;19.73;;;;;;;;;;6294313;28;20196;-61
2023/12/10 08:31:51;;;;;;;30.80;18.40;;;;;;;;;;6316883;28;20240;-61
2023/12/10 08:34:52;;;;;;;30.57;18.33;;;;;;;;;;6291657;28;20224;-61
2023/12/10 08:37:53;;;;;;;29.33;18.63;;;;;;;;;;6291894;28;20302;-61
2023/12/10 08:40:55;;;;;;;29.20;18.43;;;;;;;;;;6288217;28;20242;-61
2023/12/10 08:43:56;;;;;;;32.87;19.83;;;;;;;;;;6299192;28;20243;-61
2023/12/10 08:46:57;;;;;;;29.27;18.37;;;;;;;;;;6295480;28;20191;-61
2023/12/10 08:49:58;;;;;;;28.70;18.57;;;;;;;;;;6285085;28;20194;-61
2023/12/10 08:52:59;;;;;;;27.37;17.60;;;;;;;;;;6297506;28;20220;-61
2023/12/10 08:56:00;;;;;;;28.03;18.13;;;;;;;;;;6303062;28;20193;-61
2023/12/10 08:59:03;;;;;;;29.53;18.17;;;;;;;;;;6291126;28;20212;-61
2023/12/10 09:02:04;;;;;;;29.63;19.10;;;;;;;;;;6294134;28;20189;-61
2023/12/10 09:05:05;;;;;;;24.53;17.93;;;;;;;;;;6319690;28;20268;-61
2023/12/10 09:08:06;;;;;;;29.47;18.63;;;;;;;;;;6291595;28;20217;-61
2023/12/10 09:11:07;;;;;;;28.70;18.53;;;;;;;;;;6310030;28;20189;-61
2023/12/10 09:14:10;;;;;;;29.10;18.93;;;;;;;;;;6281845;28;20227;-61
2023/12/10 09:17:11;;;;;;;27.63;18.03;;;;;;;;;;6299179;28;20297;-61
2023/12/10 09:20:12;;;;;;;26.87;18.17;;;;;;;;;;6294167;28;20187;-61
2023/12/10 09:23:14;;;;;;;48.30;29.17;;;;;;;;;;6282575;28;20196;-61
2023/12/10 09:26:15;;;;;;;96.87;51.63;;;;;;;;;;6298652;28;20189;-61
2023/12/10 09:29:16;;;;;;;47.70;28.77;;;;;;;;;;6283852;28;20201;-61
2023/12/10 09:32:20;;;;;;;38.43;24.60;;;;;;;;;;6305542;28;20284;-61
2023/12/10 09:35:21;;;;;;;39.70;25.73;;;;;;;;;;6313937;28;20192;-61
2023/12/10 09:38:22;;;;;;;52.53;37.17;;;;;;;;;;6293015;28;20211;-61
2023/12/10 09:41:23;;;;;;;29.10;20.40;;;;;;;;;;6292239;28;20206;-61
2023/12/10 09:44:25;;;;;;;30.20;19.40;;;;;;;;;;6289943;28;20233;-61
2023/12/10 09:47:27;;;;;;;24.57;17.03;;;1.70;85.70;;;;;;6284420;28;20203;-61
2023/12/10 09:50:31;;;;;;;23.27;16.23;;;2.20;91.80;;;;;;6280045;28;20197;-61
2023/12/10 09:53:32;;;;;;;23.53;15.40;;;2.20;90.80;;;;;;6297018;28;20211;-61
2023/12/10 09:56:33;;;;;;;25.00;15.80;;;2.30;91.00;;;;;;6271686;28;20199;-61
2023/12/10 09:59:35;;;;;;;23.13;14.83;;;2.40;90.90;;;;;;6269362;28;20216;-61
2023/12/10 10:02:36;;;;;;;23.60;15.13;;;2.40;90.30;;;;;;6301098;28;20189;-61
2023/12/10 10:05:37;;;;;;;23.00;15.77;;;;;;;;;;6285881;28;20202;-61
2023/12/10 10:08:38;;;;;;;20.17;14.73;;;;;;;;;;6301644;28;20186;-61
2023/12/10 10:11:39;;;;;;;24.93;15.23;;;;;;;;;;6274045;28;20192;-62
2023/12/10 10:14:54;;;;;;;20.20;15.00;;;;;;;;;;6316592;28;20180;-62
2023/12/10 10:17:55;;;;;;;20.00;14.03;;;;;;;;;;6322520;28;20345;-61
2023/12/10 10:20:56;;;;;;;21.90;14.43;;;;;;;;;;6306651;28;20180;-61
2023/12/10 10:23:57;;;;;;;19.97;14.37;;;;;;;;;;6291453;28;20190;-61
2023/12/10 10:26:58;;;;;;;22.23;13.90;;;;;;;;;;6289147;28;20250;-61
2023/12/10 10:30:00;;;;;;;19.43;14.03;;;;;;;;;;6281814;28;20273;-61
2023/12/10 10:33:01;;;;;;;20.10;14.63;;;;;;;;;;6284874;28;20200;-61
2023/12/10 10:36:02;;;;;;;17.00;13.07;;;;;;;;;;6286902;28;20197;-61
2023/12/10 10:39:03;;;;;;;18.87;13.03;;;;;;;;;;6289379;28;20223;-61
2023/12/10 10:42:08;;;;;;;16.73;12.77;;;;;;;;;;6289453;28;20181;-61
2023/12/10 10:45:09;;;;;;;19.00;12.07;;;;;;;;;;6291861;28;20253;-61
2023/12/10 10:48:11;;;;;;;18.87;12.70;;;;;;;;;;6289597;28;20204;-61
2023/12/10 10:51:12;;;;;;;19.23;13.03;;;;;;;;;;6270359;28;20228;-61
2023/12/10 10:54:13;;;;;;;19.13;13.50;;;;;;;;;;6268184;28;20221;-62
2023/12/10 10:57:28;;;;;;;20.87;14.00;;;;;;;;;;6272265;28;20200;-61
2023/12/10 11:00:29;;;;;;;19.33;13.30;;;;;;;;;;6265516;28;20218;-63
2023/12/10 11:03:31;;;;;;;17.07;14.17;;;;;;;;;;6269905;28;20199;-61
2023/12/10 11:06:32;;;;;;;21.67;14.13;;;;;;;;;;6272458;28;20198;-60
2023/12/10 11:09:53;;;;;;;19.00;14.07;;;;;;;;;;6270455;28;20189;-61
2023/12/10 11:12:54;;;;;;;19.57;13.57;;;;;;;;;;6280150;28;20290;-61
2023/12/10 11:15:58;;;;;;;18.83;14.60;;;;;;;;;;6252439;28;20287;-61
2023/12/10 11:18:59;;;;;;;22.70;15.33;;;;;;;;;;6271853;28;20256;-61
2023/12/10 11:22:01;;;;;;;17.53;13.30;;;;;;;;;;6273534;28;20208;-61
2023/12/10 11:25:03;;;;;;;21.13;15.67;;;;;;;;;;6264997;28;20274;-61
2023/12/10 11:28:10;;;;;;;19.63;15.37;;;;;;;;;;6284244;28;20197;-61
2023/12/10 11:31:11;;;;;;;23.03;16.23;;;;;;;;;;6274007;28;20197;-61
2023/12/10 11:34:12;;;;;;;20.73;14.37;;;;;;;;;;6268291;28;20199;-61
2023/12/10 11:37:13;;;;;;;23.47;15.30;;;;;;;;;;6270827;28;20268;-61
2023/12/10 11:40:15;;;;;;;22.67;16.43;;;;;;;;;;6267600;28;20194;-61
2023/12/10 11:43:16;;;;;;;22.80;15.87;;;;;;;;;;6259006;28;20243;-61
2023/12/10 11:46:26;;;;;;;21.13;15.90;;;;;;;;;;6319746;28;20188;-61
2023/12/10 11:49:29;;;;;;;24.07;16.43;;;;;;;;;;6319810;28;20276;-61
2023/12/10 11:52:31;;;;;;;24.00;15.87;;;;;;;;;;6279893;28;20250;-62
2023/12/10 11:55:33;;;;;;;24.67;15.90;;;;;;;;;;6325731;28;20196;-62
2023/12/10 11:58:34;;;;;;;21.23;15.07;;;;;;;;;;6294261;28;20244;-61
2023/12/10 12:01:35;;;;;;;19.27;14.90;;;;;;;;;;6299644;28;20227;-61
2023/12/10 12:04:36;;;;;;;23.20;15.77;;;;;;;;;;6279832;28;20184;-61
2023/12/10 12:07:38;;;;;;;22.10;15.73;;;;;;;;;;6286319;28;20193;-61
2023/12/10 12:10:40;;;;;;;20.47;15.93;;;;;;;;;;6299309;28;20221;-61
2023/12/10 12:13:41;;;;;;;22.03;15.87;;;;;;;;;;6291127;28;20280;-62
2023/12/10 12:16:43;;;;;;;20.27;14.20;;;;;;;;;;6281602;28;20646;-62
2023/12/10 12:19:44;;;;;;;22.57;15.13;;;;;;;;;;6279458;28;20211;-63
2023/12/10 12:22:46;;;;;;;19.93;14.83;;;;;;;;;;6305325;28;20192;-63
2023/12/10 12:25:47;;;;;;;17.77;14.00;;;;;;;;;;6305779;28;20188;-64
2023/12/10 12:28:48;;;;;;;19.80;14.40;;;;;;;;;;6303097;28;20200;-64
2023/12/10 12:31:49;;;;;;;19.30;13.83;;;;;;;;;;6278049;28;20195;-63
2023/12/10 12:34:50;;;;;;;23.77;16.47;;;;;;;;;;6315742;28;20350;-63
2023/12/10 12:37:51;;;;;;;18.70;14.03;;;;;;;;;;6300550;28;20215;-64
2023/12/10 12:40:53;;;;;;;19.63;14.13;;;;;;;;;;6288070;28;20200;-63
2023/12/10 12:43:54;;;;;;;19.10;14.43;;;;;;;;;;6284956;28;20239;-62
2023/12/10 12:46:55;;;;;;;22.57;16.67;;;;;;;;;;6301008;28;20547;-62
2023/12/10 12:49:56;;;;;;;18.93;14.07;;;;;;;;;;6280518;28;20239;-62
2023/12/10 12:52:57;;;;;;;19.13;14.60;;;;;;;;;;6281846;28;20236;-62
2023/12/10 12:55:57;;;;;;;18.57;13.50;;;2.50;90.80;;;;;;6303301;28;20200;-62
2023/12/10 12:58:58;;;;;;;21.03;14.83;;;5.10;84.50;;;;;;6285072;28;20294;-61
2023/12/10 13:01:59;;;;;;;21.13;16.00;;;5.30;82.90;;;;;;6296611;28;20198;-61
2023/12/10 13:05:00;;;;;;;24.50;17.87;;;5.30;81.70;;;;;;6285474;28;20237;-62
2023/12/10 13:08:00;;;;;;;25.97;18.87;;;5.30;81.80;;;;;;6268950;28;20207;-64
2023/12/10 13:11:01;;;;;;;25.47;18.70;;;5.40;82.50;;;;;;6270597;28;20194;-62
2023/12/10 13:14:03;;;;;;;25.70;18.57;;;5.40;83.00;;;;;;6292595;28;20206;-62
2023/12/10 13:17:05;;;;;;;27.83;19.80;;;5.50;83.10;;;;;;6293528;28;20192;-62
2023/12/10 13:20:07;;;;;;;30.10;22.00;;;5.50;83.50;;;;;;6289205;28;20212;-61
2023/12/10 13:23:08;;;;;;;32.40;24.47;;;5.50;80.30;;;;;;6299337;28;20222;-62
2023/12/10 13:26:10;;;;;;;28.33;21.07;;;5.50;80.00;;;;;;6283194;28;20193;-62
2023/12/10 13:29:11;;;;;;;31.87;21.13;;;5.50;82.60;;;;;;6279541;28;20197;-62
2023/12/10 13:32:12;;;;;;;28.47;20.43;;;5.50;81.50;;;;;;6295614;28;20193;-61
2023/12/10 13:35:12;;;;;;;30.07;21.97;;;5.60;83.30;;;;;;6287564;28;20279;-62
2023/12/10 13:38:13;;;;;;;34.40;21.83;;;5.50;80.30;;;;;;6288597;28;20209;-62
2023/12/10 13:41:14;;;;;;;30.43;21.47;;;5.40;82.40;;;;;;6287551;28;20192;-62
2023/12/10 13:44:15;;;;;;;30.13;20.27;;;5.50;82.00;;;;;;6268640;28;20244;-62
2023/12/10 13:47:16;;;;;;;28.83;20.53;;;5.50;82.50;;;;;;6264673;28;20214;-62
2023/12/10 13:50:16;;;;;;;34.93;23.67;;;5.50;82.10;;;;;;6269503;28;20234;-62
2023/12/10 13:53:18;;;;;;;31.43;22.97;;;5.50;80.50;;;;;;6284758;28;20192;-62
2023/12/10 13:56:18;;;;;;;30.63;22.23;;;5.60;81.90;;;;;;6269866;28;20184;-61
2023/12/10 13:59:19;;;;;;;33.53;22.73;;;5.60;83.80;;;;;;6281400;28;20266;-62
2023/12/10 14:02:20;;;;;;;32.90;23.37;;;5.70;85.50;;;;;;6291061;28;20204;-62
2023/12/10 14:05:20;;;;;;;34.27;24.03;;;5.70;82.10;;;;;;6305853;28;20287;-62
2023/12/10 14:08:21;;;;;;;33.03;23.27;;;5.70;84.20;;;;;;6300107;28;20197;-62
2023/12/10 14:11:22;;;;;;;32.50;23.83;;;5.70;80.90;;;;;;6278973;28;20193;-62
2023/12/10 14:14:23;;;;;;;30.63;23.33;;;5.60;83.10;;;;;;6292173;28;20244;-62
2023/12/10 14:17:24;;;;;;;36.50;24.63;;;5.60;84.70;;;;;;6303366;28;20192;-62
2023/12/10 14:20:24;;;;;;;34.70;23.47;;;5.50;83.40;;;;;;6294315;28;20191;-62
2023/12/10 14:23:25;;;;;;;33.07;23.43;;;5.50;81.00;;;;;;6294142;28;20197;-62
2023/12/10 14:26:26;;;;;;;33.40;24.07;;;5.30;83.00;;;;;;6272466;28;20226;-62
2023/12/10 14:29:26;;;;;;;40.57;28.80;;;5.20;82.90;;;;;;6295072;28;20193;-62
2023/12/10 14:32:27;;;;;;;42.60;26.63;;;5.00;82.00;;;;;;6286151;28;20192;-62
2023/12/10 14:35:28;;;;;;;39.93;27.17;;;4.90;83.60;;;;;;6286657;28;20302;-61
2023/12/10 14:38:29;;;;;;;35.87;24.20;;;4.80;82.70;;;;;;6299037;28;20218;-62
2023/12/10 14:41:29;;;;;;;34.97;22.87;;;4.70;84.20;;;;;;6295186;28;20193;-62
2023/12/10 14:44:31;;;;;;;34.90;23.00;;;4.50;83.20;;;;;;6290141;28;20234;-62
2023/12/10 14:47:32;;;;;;;29.13;21.17;;;4.50;84.70;;;;;;6296625;28;20184;-62
2023/12/10 14:50:32;;;;;;;30.33;22.70;;;4.40;85.30;;;;;;6290211;28;20219;-62
2023/12/10 14:53:34;;;;;;;36.17;23.77;;;4.20;84.40;;;;;;6279597;28;20192;-62
2023/12/10 14:56:35;;;;;;;38.27;23.90;;;4.10;85.20;;;;;;6278154;28;20188;-62
2023/12/10 14:59:36;;;;;;;36.37;22.93;;;3.90;85.40;;;;;;6271855;28;20259;-64
2023/12/10 15:02:37;;;;;;;35.80;23.33;;;3.70;86.10;;;;;;6274395;28;20192;-63
2023/12/10 15:05:38;;;;;;;34.33;23.47;;;3.60;86.80;;;;;;6302280;28;20195;-62
2023/12/10 15:08:39;;;;;;;34.27;23.07;;;3.50;86.90;;;;;;6274431;28;20185;-61
2023/12/10 15:11:40;;;;;;;37.27;24.50;;;3.40;88.10;;;;;;6267546;28;20192;-61
2023/12/10 15:14:41;;;;;;;38.20;25.17;;;3.30;88.10;;;;;;6295311;28;20192;-61
2023/12/10 15:17:42;;;;;;;39.90;26.27;;;3.10;88.30;;;;;;6265223;28;20223;-62
2023/12/10 15:20:43;;;;;;;40.57;26.80;;;3.00;88.10;;;;;;6277417;28;20299;-61
2023/12/10 15:23:43;;;;;;;37.00;26.47;;;2.90;88.80;;;;;;6276719;28;20189;-61
2023/12/10 15:26:45;;;;;;;40.80;26.97;;;;;;;;;;6289352;28;20196;-61
2023/12/10 15:29:45;;;;;;;42.87;32.57;;;2.80;90.20;;;;;;6286013;28;20734;-61
2023/12/10 15:32:46;;;;;;;38.67;26.60;;;2.60;91.00;;;;;;6277197;28;20181;-61
2023/12/10 15:35:47;;;;;;;40.43;27.10;;;;;;;;;;6291598;28;20185;-61
2023/12/10 15:38:48;;;;;;;37.50;26.03;;;;;;;;;;6291183;28;20298;-60
2023/12/10 15:41:50;;;;;;;42.07;26.07;;;;;;;;;;6284144;28;20180;-62
2023/12/10 15:44:51;;;;;;;39.57;25.57;;;;;;;;;;6278309;28;20711;-60
2023/12/10 15:47:51;;;;;;;42.17;26.37;;;2.50;90.60;;;;;;6283737;28;20197;-60
2023/12/10 15:50:53;;;;;;;43.40;28.30;;;2.10;91.60;;;;;;6291473;28;20289;-61
2023/12/10 15:53:54;;;;;;;35.87;24.57;;;2.10;92.80;;;;;;6271914;28;20219;-61
2023/12/10 15:56:55;;;;;;;36.27;24.47;;;;;;;;;;6268704;28;20195;-61
2023/12/10 15:59:56;;;;;;;36.37;26.07;;;;;;;;;;6295933;28;20253;-61
2023/12/10 16:02:57;;;;;;;44.47;30.40;;;;;;;;;;6286056;28;20188;-61
2023/12/10 16:05:58;;;;;;;37.50;26.40;;;;;;;;;;6289971;28;20223;-62
2023/12/10 16:08:59;;;;;;;36.47;24.33;;;;;;;;;;6302710;28;20199;-62
2023/12/10 16:12:00;;;;;;;38.33;25.77;;;;;;;;;;6291668;28;20192;-61
2023/12/10 16:15:01;;;;;;;40.83;26.87;;;2.00;93.00;;;;;;6300566;28;20192;-61
2023/12/10 16:18:02;;;;;;;41.70;26.93;;;1.60;94.40;;;;;;6271861;28;20212;-61
2023/12/10 16:21:03;;;;;;;37.83;27.20;;;1.50;93.00;;;;;;6275887;28;20305;-62
2023/12/10 16:24:04;;;;;;;42.33;30.17;;;1.50;94.50;;;;;;6285648;28;20195;-61
2023/12/10 16:27:05;;;;;;;39.33;28.10;;;;;;;;;;6270973;28;20284;-62
2023/12/10 16:30:07;;;;;;;45.40;28.63;;;1.40;94.00;;;;;;6310650;28;20210;-62
2023/12/10 16:33:07;;;;;;;45.30;27.47;;;1.20;95.20;;;;;;6278831;28;20201;-61
2023/12/10 16:36:09;;;;;;;42.60;27.63;;;1.20;95.30;;;;;;6273756;28;20199;-61
2023/12/10 16:39:10;;;;;;;36.47;25.00;;;1.20;95.80;;;;;;6282195;28;20232;-61
2023/12/10 16:42:10;;;;;;;39.53;26.53;;;1.10;95.10;;;;;;6265252;28;20193;-61
2023/12/10 16:45:11;;;;;;;39.87;25.07;;;1.10;95.60;;;;;;6308192;28;20235;-61
2023/12/10 16:48:12;;;;;;;42.40;26.23;;;1.10;95.40;;;;;;6273523;28;20282;-62
2023/12/10 16:51:13;;;;;;;36.33;24.97;;;1.10;95.70;;;;;;6272385;28;20189;-62
2023/12/10 16:54:14;;;;;;;40.43;26.60;;;;;;;;;;6280089;28;20195;-62
2023/12/10 16:57:15;;;;;;;38.97;25.50;;;;;;;;;;6311263;28;20187;-62
2023/12/10 17:00:16;;;;;;;36.27;23.77;;;;;;;;;;6295138;28;20242;-62
2023/12/10 17:03:17;;;;;;;38.63;25.07;;;;;;;;;;6309501;28;20282;-62
2023/12/10 17:06:20;;;;;;;39.03;23.10;;;;;;;;;;6302910;28;20236;-62